sensor_id;sensor_type;location;lat;lon;timestamp;P1;durP1;ratioP1;P2;durP2;ratioP2
57643;SDS011;43474;46.510;6.686;2024-02-16T00:01:20;2.38;;;1.35;;
57643;SDS011;43474;46.510;6.686;2024-02-16T00:03:45;3.67;;;1.73;;
57643;SDS011;43474;46.510;6.686;2024-02-16T00:06:11;6.15;;;2.00;;
57643;SDS011;43474;46.510;6.686;2024-02-16T00:08:37;3.35;;;1.75;;
57643;SDS011;43474;46.510;6.686;2024-02-16T00:11:04;7.75;;;1.95;;
57643;SDS011;43474;46.510;6.686;2024-02-16T00:13:30;3.90;;;1.90;;
57643;SDS011;43474;46.510;6.686;2024-02-16T00:15:56;2.50;;;1.63;;
57643;SDS011;43474;46.510;6.686;2024-02-16T00:18:25;2.67;;;2.05;;
57643;SDS011;43474;46.510;6.686;2024-02-16T00:20:57;4.55;;;2.53;;
57643;SDS011;43474;46.510;6.686;2024-02-16T00:23:23;3.70;;;1.40;;
57643;SDS011;43474;46.510;6.686;2024-02-16T00:26:02;2.63;;;1.55;;
57643;SDS011;43474;46.510;6.686;2024-02-16T00:28:32;2.65;;;1.83;;
57643;SDS011;43474;46.510;6.686;2024-02-16T00:31:00;5.47;;;2.58;;
57643;SDS011;43474;46.510;6.686;2024-02-16T00:33:28;4.95;;;2.08;;
57643;SDS011;43474;46.510;6.686;2024-02-16T00:36:13;4.20;;;2.83;;
57643;SDS011;43474;46.510;6.686;2024-02-16T00:38:41;18.20;;;2.78;;
57643;SDS011;43474;46.510;6.686;2024-02-16T00:41:06;4.95;;;2.55;;
57643;SDS011;43474;46.510;6.686;2024-02-16T00:43:33;3.22;;;2.05;;
57643;SDS011;43474;46.510;6.686;2024-02-16T00:45:59;5.82;;;2.13;;
57643;SDS011;43474;46.510;6.686;2024-02-16T00:48:24;4.13;;;2.60;;
57643;SDS011;43474;46.510;6.686;2024-02-16T00:50:50;2.50;;;1.45;;
57643;SDS011;43474;46.510;6.686;2024-02-16T00:53:16;2.72;;;1.65;;
57643;SDS011;43474;46.510;6.686;2024-02-16T00:55:41;3.80;;;2.97;;
57643;SDS011;43474;46.510;6.686;2024-02-16T00:58:07;8.02;;;2.83;;
57643;SDS011;43474;46.510;6.686;2024-02-16T01:00:33;3.78;;;2.05;;
57643;SDS011;43474;46.510;6.686;2024-02-16T01:02:58;5.50;;;2.13;;
57643;SDS011;43474;46.510;6.686;2024-02-16T01:05:24;5.38;;;2.78;;
57643;SDS011;43474;46.510;6.686;2024-02-16T01:07:50;6.55;;;2.65;;
57643;SDS011;43474;46.510;6.686;2024-02-16T01:10:15;3.65;;;1.75;;
57643;SDS011;43474;46.510;6.686;2024-02-16T01:12:41;3.13;;;2.20;;
57643;SDS011;43474;46.510;6.686;2024-02-16T01:15:07;7.35;;;2.38;;
57643;SDS011;43474;46.510;6.686;2024-02-16T01:17:33;3.33;;;2.28;;
57643;SDS011;43474;46.510;6.686;2024-02-16T01:19:59;3.67;;;2.10;;
57643;SDS011;43474;46.510;6.686;2024-02-16T01:22:25;3.97;;;1.63;;
57643;SDS011;43474;46.510;6.686;2024-02-16T01:24:51;3.42;;;2.05;;
57643;SDS011;43474;46.510;6.686;2024-02-16T01:27:17;5.80;;;1.67;;
57643;SDS011;43474;46.510;6.686;2024-02-16T01:29:43;9.05;;;1.73;;
57643;SDS011;43474;46.510;6.686;2024-02-16T01:32:09;3.35;;;1.52;;
57643;SDS011;43474;46.510;6.686;2024-02-16T01:34:34;2.33;;;1.65;;
57643;SDS011;43474;46.510;6.686;2024-02-16T01:37:00;6.55;;;2.10;;
57643;SDS011;43474;46.510;6.686;2024-02-16T01:39:25;2.50;;;1.73;;
57643;SDS011;43474;46.510;6.686;2024-02-16T01:41:51;2.72;;;2.20;;
57643;SDS011;43474;46.510;6.686;2024-02-16T01:44:17;2.70;;;1.58;;
57643;SDS011;43474;46.510;6.686;2024-02-16T01:46:46;3.90;;;1.88;;
57643;SDS011;43474;46.510;6.686;2024-02-16T01:49:17;4.53;;;2.33;;
57643;SDS011;43474;46.510;6.686;2024-02-16T01:51:50;2.55;;;2.03;;
57643;SDS011;43474;46.510;6.686;2024-02-16T01:54:16;4.55;;;1.67;;
57643;SDS011;43474;46.510;6.686;2024-02-16T01:56:44;4.97;;;2.28;;
57643;SDS011;43474;46.510;6.686;2024-02-16T01:59:10;3.45;;;1.98;;
57643;SDS011;43474;46.510;6.686;2024-02-16T02:01:36;2.53;;;1.77;;
57643;SDS011;43474;46.510;6.686;2024-02-16T02:04:02;6.47;;;1.80;;
57643;SDS011;43474;46.510;6.686;2024-02-16T02:06:28;5.63;;;2.65;;
57643;SDS011;43474;46.510;6.686;2024-02-16T02:08:53;3.63;;;1.83;;
57643;SDS011;43474;46.510;6.686;2024-02-16T02:11:19;1.80;;;1.60;;
57643;SDS011;43474;46.510;6.686;2024-02-16T02:13:44;5.32;;;2.45;;
57643;SDS011;43474;46.510;6.686;2024-02-16T02:16:10;6.00;;;2.22;;
57643;SDS011;43474;46.510;6.686;2024-02-16T02:18:36;2.80;;;2.10;;
57643;SDS011;43474;46.510;6.686;2024-02-16T02:21:03;3.58;;;2.47;;
57643;SDS011;43474;46.510;6.686;2024-02-16T02:23:28;3.63;;;2.28;;
57643;SDS011;43474;46.510;6.686;2024-02-16T02:25:54;3.30;;;2.28;;
57643;SDS011;43474;46.510;6.686;2024-02-16T02:28:20;4.13;;;1.90;;
57643;SDS011;43474;46.510;6.686;2024-02-16T02:30:49;7.03;;;1.52;;
57643;SDS011;43474;46.510;6.686;2024-02-16T02:33:14;2.58;;;1.75;;
57643;SDS011;43474;46.510;6.686;2024-02-16T02:35:40;6.28;;;1.65;;
57643;SDS011;43474;46.510;6.686;2024-02-16T02:38:06;4.35;;;2.13;;
57643;SDS011;43474;46.510;6.686;2024-02-16T02:40:32;2.85;;;1.70;;
57643;SDS011;43474;46.510;6.686;2024-02-16T02:42:58;5.38;;;2.30;;
57643;SDS011;43474;46.510;6.686;2024-02-16T02:45:23;3.55;;;2.22;;
57643;SDS011;43474;46.510;6.686;2024-02-16T02:47:49;3.35;;;1.73;;
57643;SDS011;43474;46.510;6.686;2024-02-16T02:50:16;12.05;;;2.40;;
57643;SDS011;43474;46.510;6.686;2024-02-16T02:52:42;2.10;;;1.48;;
57643;SDS011;43474;46.510;6.686;2024-02-16T02:55:10;6.45;;;2.33;;
57643;SDS011;43474;46.510;6.686;2024-02-16T02:57:36;3.67;;;1.90;;
57643;SDS011;43474;46.510;6.686;2024-02-16T03:00:03;4.90;;;2.60;;
57643;SDS011;43474;46.510;6.686;2024-02-16T03:02:31;2.28;;;1.60;;
57643;SDS011;43474;46.510;6.686;2024-02-16T03:04:57;2.35;;;2.00;;
57643;SDS011;43474;46.510;6.686;2024-02-16T03:07:23;3.53;;;2.15;;
57643;SDS011;43474;46.510;6.686;2024-02-16T03:09:49;2.53;;;1.73;;
57643;SDS011;43474;46.510;6.686;2024-02-16T03:12:15;5.80;;;2.63;;
57643;SDS011;43474;46.510;6.686;2024-02-16T03:14:40;4.40;;;2.88;;
57643;SDS011;43474;46.510;6.686;2024-02-16T03:17:07;3.30;;;1.83;;
57643;SDS011;43474;46.510;6.686;2024-02-16T03:19:51;3.97;;;2.58;;
57643;SDS011;43474;46.510;6.686;2024-02-16T03:22:34;4.20;;;2.05;;
57643;SDS011;43474;46.510;6.686;2024-02-16T03:25:16;3.33;;;2.25;;
57643;SDS011;43474;46.510;6.686;2024-02-16T03:27:58;3.08;;;1.92;;
57643;SDS011;43474;46.510;6.686;2024-02-16T03:30:26;6.70;;;2.90;;
57643;SDS011;43474;46.510;6.686;2024-02-16T03:32:51;4.25;;;2.25;;
57643;SDS011;43474;46.510;6.686;2024-02-16T03:35:18;2.92;;;2.40;;
57643;SDS011;43474;46.510;6.686;2024-02-16T03:37:44;5.22;;;1.95;;
57643;SDS011;43474;46.510;6.686;2024-02-16T03:40:10;2.88;;;1.98;;
57643;SDS011;43474;46.510;6.686;2024-02-16T03:42:40;4.05;;;1.95;;
57643;SDS011;43474;46.510;6.686;2024-02-16T03:45:06;3.38;;;2.03;;
57643;SDS011;43474;46.510;6.686;2024-02-16T03:47:32;6.72;;;2.72;;
57643;SDS011;43474;46.510;6.686;2024-02-16T03:49:58;4.20;;;2.10;;
57643;SDS011;43474;46.510;6.686;2024-02-16T03:52:24;3.03;;;1.65;;
57643;SDS011;43474;46.510;6.686;2024-02-16T03:54:50;3.92;;;1.88;;
57643;SDS011;43474;46.510;6.686;2024-02-16T03:57:16;3.97;;;2.10;;
57643;SDS011;43474;46.510;6.686;2024-02-16T03:59:43;3.20;;;2.25;;
57643;SDS011;43474;46.510;6.686;2024-02-16T04:02:09;4.68;;;1.48;;
57643;SDS011;43474;46.510;6.686;2024-02-16T04:04:35;3.25;;;1.85;;
57643;SDS011;43474;46.510;6.686;2024-02-16T04:07:01;5.38;;;2.53;;
57643;SDS011;43474;46.510;6.686;2024-02-16T04:09:27;3.22;;;1.85;;
57643;SDS011;43474;46.510;6.686;2024-02-16T04:11:53;5.65;;;2.33;;
57643;SDS011;43474;46.510;6.686;2024-02-16T04:14:19;4.70;;;2.25;;
57643;SDS011;43474;46.510;6.686;2024-02-16T04:16:44;4.68;;;2.60;;
57643;SDS011;43474;46.510;6.686;2024-02-16T04:19:10;5.32;;;2.22;;
57643;SDS011;43474;46.510;6.686;2024-02-16T04:21:36;3.42;;;2.20;;
57643;SDS011;43474;46.510;6.686;2024-02-16T04:24:02;8.07;;;2.90;;
57643;SDS011;43474;46.510;6.686;2024-02-16T04:26:31;5.00;;;2.75;;
57643;SDS011;43474;46.510;6.686;2024-02-16T04:29:14;4.13;;;2.47;;
57643;SDS011;43474;46.510;6.686;2024-02-16T04:31:58;6.10;;;3.08;;
57643;SDS011;43474;46.510;6.686;2024-02-16T04:36:58;6.15;;;2.35;;
57643;SDS011;43474;46.510;6.686;2024-02-16T04:39:44;5.75;;;2.80;;
57643;SDS011;43474;46.510;6.686;2024-02-16T04:42:14;4.07;;;2.72;;
57643;SDS011;43474;46.510;6.686;2024-02-16T04:44:52;4.28;;;2.05;;
57643;SDS011;43474;46.510;6.686;2024-02-16T04:47:35;6.00;;;2.10;;
57643;SDS011;43474;46.510;6.686;2024-02-16T04:50:08;1.77;;;1.40;;
57643;SDS011;43474;46.510;6.686;2024-02-16T04:52:37;3.88;;;2.35;;
57643;SDS011;43474;46.510;6.686;2024-02-16T04:55:21;5.47;;;2.33;;
57643;SDS011;43474;46.510;6.686;2024-02-16T04:58:10;3.55;;;1.83;;
57643;SDS011;43474;46.510;6.686;2024-02-16T05:01:02;1.90;;;1.20;;
57643;SDS011;43474;46.510;6.686;2024-02-16T05:03:48;1.83;;;1.42;;
57643;SDS011;43474;46.510;6.686;2024-02-16T05:06:38;3.03;;;1.92;;
57643;SDS011;43474;46.510;6.686;2024-02-16T05:09:25;4.72;;;1.73;;
57643;SDS011;43474;46.510;6.686;2024-02-16T05:12:27;2.53;;;1.25;;
57643;SDS011;43474;46.510;6.686;2024-02-16T05:15:38;2.75;;;2.08;;
57643;SDS011;43474;46.510;6.686;2024-02-16T05:18:28;2.28;;;2.05;;
57643;SDS011;43474;46.510;6.686;2024-02-16T05:21:15;5.50;;;2.47;;
57643;SDS011;43474;46.510;6.686;2024-02-16T05:24:15;1.55;;;1.23;;
57643;SDS011;43474;46.510;6.686;2024-02-16T05:27:03;3.17;;;2.22;;
57643;SDS011;43474;46.510;6.686;2024-02-16T05:29:49;3.40;;;2.13;;
57643;SDS011;43474;46.510;6.686;2024-02-16T05:32:31;2.97;;;2.15;;
57643;SDS011;43474;46.510;6.686;2024-02-16T05:35:12;1.92;;;1.60;;
57643;SDS011;43474;46.510;6.686;2024-02-16T05:38:03;1.30;;;1.17;;
57643;SDS011;43474;46.510;6.686;2024-02-16T05:40:41;3.60;;;1.48;;
57643;SDS011;43474;46.510;6.686;2024-02-16T05:43:19;17.42;;;1.98;;
57643;SDS011;43474;46.510;6.686;2024-02-16T05:46:04;2.67;;;1.63;;
57643;SDS011;43474;46.510;6.686;2024-02-16T05:48:45;8.38;;;1.92;;
57643;SDS011;43474;46.510;6.686;2024-02-16T05:51:12;2.55;;;1.60;;
57643;SDS011;43474;46.510;6.686;2024-02-16T05:53:38;5.88;;;2.05;;
57643;SDS011;43474;46.510;6.686;2024-02-16T05:56:06;3.13;;;1.23;;
57643;SDS011;43474;46.510;6.686;2024-02-16T05:58:33;2.08;;;1.48;;
57643;SDS011;43474;46.510;6.686;2024-02-16T06:01:01;3.25;;;1.77;;
57643;SDS011;43474;46.510;6.686;2024-02-16T06:03:33;2.95;;;1.80;;
57643;SDS011;43474;46.510;6.686;2024-02-16T06:05:59;3.80;;;1.70;;
57643;SDS011;43474;46.510;6.686;2024-02-16T06:08:40;4.43;;;2.63;;
57643;SDS011;43474;46.510;6.686;2024-02-16T06:11:12;20.50;;;4.00;;
57643;SDS011;43474;46.510;6.686;2024-02-16T06:13:42;7.03;;;2.60;;
57643;SDS011;43474;46.510;6.686;2024-02-16T06:16:26;5.20;;;3.65;;
57643;SDS011;43474;46.510;6.686;2024-02-16T06:18:57;8.38;;;4.03;;
57643;SDS011;43474;46.510;6.686;2024-02-16T06:21:26;4.13;;;3.25;;
57643;SDS011;43474;46.510;6.686;2024-02-16T06:23:54;4.88;;;2.83;;
57643;SDS011;43474;46.510;6.686;2024-02-16T06:26:23;3.85;;;2.67;;
57643;SDS011;43474;46.510;6.686;2024-02-16T06:29:04;4.65;;;2.55;;
57643;SDS011;43474;46.510;6.686;2024-02-16T06:31:31;3.20;;;1.70;;
57643;SDS011;43474;46.510;6.686;2024-02-16T06:34:01;4.18;;;2.33;;
57643;SDS011;43474;46.510;6.686;2024-02-16T06:36:29;3.03;;;1.70;;
57643;SDS011;43474;46.510;6.686;2024-02-16T06:38:59;3.92;;;2.00;;
57643;SDS011;43474;46.510;6.686;2024-02-16T06:41:39;3.38;;;2.05;;
57643;SDS011;43474;46.510;6.686;2024-02-16T06:44:20;13.23;;;2.00;;
57643;SDS011;43474;46.510;6.686;2024-02-16T06:46:49;2.45;;;2.17;;
57643;SDS011;43474;46.510;6.686;2024-02-16T06:49:15;10.80;;;1.75;;
57643;SDS011;43474;46.510;6.686;2024-02-16T06:51:44;2.53;;;1.63;;
57643;SDS011;43474;46.510;6.686;2024-02-16T06:54:10;2.63;;;1.73;;
57643;SDS011;43474;46.510;6.686;2024-02-16T06:56:41;2.25;;;1.38;;
57643;SDS011;43474;46.510;6.686;2024-02-16T06:59:06;2.55;;;1.95;;
57643;SDS011;43474;46.510;6.686;2024-02-16T07:01:32;4.93;;;2.88;;
57643;SDS011;43474;46.510;6.686;2024-02-16T07:03:58;3.92;;;2.60;;
57643;SDS011;43474;46.510;6.686;2024-02-16T07:06:23;3.22;;;2.15;;
57643;SDS011;43474;46.510;6.686;2024-02-16T07:08:49;2.00;;;1.38;;
57643;SDS011;43474;46.510;6.686;2024-02-16T07:11:15;5.95;;;1.67;;
57643;SDS011;43474;46.510;6.686;2024-02-16T07:13:40;6.22;;;1.70;;
57643;SDS011;43474;46.510;6.686;2024-02-16T07:16:08;3.92;;;1.90;;
57643;SDS011;43474;46.510;6.686;2024-02-16T07:18:34;3.00;;;1.58;;
57643;SDS011;43474;46.510;6.686;2024-02-16T07:21:00;4.00;;;1.52;;
57643;SDS011;43474;46.510;6.686;2024-02-16T07:23:31;3.08;;;1.73;;
57643;SDS011;43474;46.510;6.686;2024-02-16T07:26:35;2.53;;;1.88;;
57643;SDS011;43474;46.510;6.686;2024-02-16T07:29:39;1.42;;;1.20;;
57643;SDS011;43474;46.510;6.686;2024-02-16T07:32:21;2.40;;;1.40;;
57643;SDS011;43474;46.510;6.686;2024-02-16T07:34:50;2.15;;;1.65;;
57643;SDS011;43474;46.510;6.686;2024-02-16T07:37:16;2.25;;;1.58;;
57643;SDS011;43474;46.510;6.686;2024-02-16T07:39:42;2.38;;;1.75;;
57643;SDS011;43474;46.510;6.686;2024-02-16T07:42:07;3.95;;;1.52;;
57643;SDS011;43474;46.510;6.686;2024-02-16T07:44:38;2.17;;;1.98;;
57643;SDS011;43474;46.510;6.686;2024-02-16T07:47:05;2.45;;;1.55;;
57643;SDS011;43474;46.510;6.686;2024-02-16T07:49:31;4.18;;;1.33;;
57643;SDS011;43474;46.510;6.686;2024-02-16T07:51:57;4.25;;;2.22;;
57643;SDS011;43474;46.510;6.686;2024-02-16T07:57:37;5.50;;;2.10;;
57643;SDS011;43474;46.510;6.686;2024-02-16T08:00:55;10.50;;;2.72;;
57643;SDS011;43474;46.510;6.686;2024-02-16T08:04:16;3.45;;;2.30;;
57643;SDS011;43474;46.510;6.686;2024-02-16T08:06:45;2.90;;;1.80;;
57643;SDS011;43474;46.510;6.686;2024-02-16T08:09:11;6.25;;;3.00;;
57643;SDS011;43474;46.510;6.686;2024-02-16T08:11:37;10.25;;;3.05;;
57643;SDS011;43474;46.510;6.686;2024-02-16T08:14:02;6.80;;;3.08;;
57643;SDS011;43474;46.510;6.686;2024-02-16T08:16:28;7.28;;;3.30;;
57643;SDS011;43474;46.510;6.686;2024-02-16T08:18:54;3.50;;;2.55;;
57643;SDS011;43474;46.510;6.686;2024-02-16T08:21:20;8.80;;;2.53;;
57643;SDS011;43474;46.510;6.686;2024-02-16T08:23:46;4.03;;;2.80;;
57643;SDS011;43474;46.510;6.686;2024-02-16T08:26:12;6.13;;;2.47;;
57643;SDS011;43474;46.510;6.686;2024-02-16T08:28:38;4.25;;;2.08;;
57643;SDS011;43474;46.510;6.686;2024-02-16T08:31:05;3.55;;;2.55;;
57643;SDS011;43474;46.510;6.686;2024-02-16T08:33:31;4.35;;;2.38;;
57643;SDS011;43474;46.510;6.686;2024-02-16T08:35:58;5.40;;;2.47;;
57643;SDS011;43474;46.510;6.686;2024-02-16T08:38:24;2.70;;;1.85;;
57643;SDS011;43474;46.510;6.686;2024-02-16T08:40:50;5.65;;;2.08;;
57643;SDS011;43474;46.510;6.686;2024-02-16T08:43:17;2.47;;;1.70;;
57643;SDS011;43474;46.510;6.686;2024-02-16T08:45:43;6.25;;;2.88;;
57643;SDS011;43474;46.510;6.686;2024-02-16T08:48:08;5.07;;;3.00;;
57643;SDS011;43474;46.510;6.686;2024-02-16T08:50:34;5.60;;;3.65;;
57643;SDS011;43474;46.510;6.686;2024-02-16T08:53:00;6.15;;;4.07;;
57643;SDS011;43474;46.510;6.686;2024-02-16T08:55:26;5.50;;;4.32;;
57643;SDS011;43474;46.510;6.686;2024-02-16T08:57:52;6.00;;;4.18;;
57643;SDS011;43474;46.510;6.686;2024-02-16T09:00:18;6.78;;;4.50;;
57643;SDS011;43474;46.510;6.686;2024-02-16T09:02:44;6.22;;;3.90;;
57643;SDS011;43474;46.510;6.686;2024-02-16T09:05:10;9.23;;;4.93;;
57643;SDS011;43474;46.510;6.686;2024-02-16T09:07:36;6.28;;;4.32;;
57643;SDS011;43474;46.510;6.686;2024-02-16T09:10:02;8.93;;;5.13;;
57643;SDS011;43474;46.510;6.686;2024-02-16T09:12:29;7.93;;;4.57;;
57643;SDS011;43474;46.510;6.686;2024-02-16T09:14:55;5.57;;;4.43;;
57643;SDS011;43474;46.510;6.686;2024-02-16T09:17:21;6.18;;;4.00;;
57643;SDS011;43474;46.510;6.686;2024-02-16T09:27:18;8.60;;;4.38;;
57643;SDS011;43474;46.510;6.686;2024-02-16T09:30:03;6.90;;;4.30;;
57643;SDS011;43474;46.510;6.686;2024-02-16T09:32:57;8.60;;;4.65;;
57643;SDS011;43474;46.510;6.686;2024-02-16T09:35:24;6.40;;;4.35;;
57643;SDS011;43474;46.510;6.686;2024-02-16T09:37:50;7.40;;;5.20;;
57643;SDS011;43474;46.510;6.686;2024-02-16T09:40:17;5.95;;;4.00;;
57643;SDS011;43474;46.510;6.686;2024-02-16T09:42:47;8.40;;;4.50;;
57643;SDS011;43474;46.510;6.686;2024-02-16T09:45:15;9.02;;;5.25;;
57643;SDS011;43474;46.510;6.686;2024-02-16T09:47:42;9.82;;;4.03;;
57643;SDS011;43474;46.510;6.686;2024-02-16T09:50:15;7.75;;;5.38;;
57643;SDS011;43474;46.510;6.686;2024-02-16T09:52:42;12.13;;;4.50;;
57643;SDS011;43474;46.510;6.686;2024-02-16T09:55:14;7.55;;;4.57;;
57643;SDS011;43474;46.510;6.686;2024-02-16T09:57:41;7.57;;;4.38;;
57643;SDS011;43474;46.510;6.686;2024-02-16T10:00:08;5.55;;;4.43;;
57643;SDS011;43474;46.510;6.686;2024-02-16T10:02:41;7.53;;;4.45;;
57643;SDS011;43474;46.510;6.686;2024-02-16T10:05:13;6.97;;;4.57;;
57643;SDS011;43474;46.510;6.686;2024-02-16T10:07:43;8.98;;;4.10;;
57643;SDS011;43474;46.510;6.686;2024-02-16T10:10:23;12.27;;;5.32;;
57643;SDS011;43474;46.510;6.686;2024-02-16T10:13:00;8.35;;;4.32;;
57643;SDS011;43474;46.510;6.686;2024-02-16T10:15:30;7.03;;;4.25;;
57643;SDS011;43474;46.510;6.686;2024-02-16T10:17:57;6.63;;;4.78;;
57643;SDS011;43474;46.510;6.686;2024-02-16T10:20:29;10.73;;;5.30;;
57643;SDS011;43474;46.510;6.686;2024-02-16T10:23:05;8.90;;;5.40;;
57643;SDS011;43474;46.510;6.686;2024-02-16T10:25:36;8.48;;;5.13;;
57643;SDS011;43474;46.510;6.686;2024-02-16T10:28:09;8.43;;;4.70;;
57643;SDS011;43474;46.510;6.686;2024-02-16T10:30:39;15.52;;;5.35;;
57643;SDS011;43474;46.510;6.686;2024-02-16T10:33:08;8.80;;;4.85;;
57643;SDS011;43474;46.510;6.686;2024-02-16T10:35:37;10.43;;;5.38;;
57643;SDS011;43474;46.510;6.686;2024-02-16T10:38:05;9.95;;;5.20;;
57643;SDS011;43474;46.510;6.686;2024-02-16T10:40:32;7.55;;;4.70;;
57643;SDS011;43474;46.510;6.686;2024-02-16T10:43:00;8.30;;;4.95;;
57643;SDS011;43474;46.510;6.686;2024-02-16T10:45:33;12.65;;;5.00;;
57643;SDS011;43474;46.510;6.686;2024-02-16T10:48:00;6.50;;;4.00;;
57643;SDS011;43474;46.510;6.686;2024-02-16T10:50:28;8.93;;;5.03;;
57643;SDS011;43474;46.510;6.686;2024-02-16T10:52:53;11.50;;;5.03;;
57643;SDS011;43474;46.510;6.686;2024-02-16T10:55:22;7.82;;;5.47;;
57643;SDS011;43474;46.510;6.686;2024-02-16T10:57:49;8.55;;;5.10;;
57643;SDS011;43474;46.510;6.686;2024-02-16T11:00:19;8.43;;;4.80;;
57643;SDS011;43474;46.510;6.686;2024-02-16T11:02:54;5.97;;;4.07;;
57643;SDS011;43474;46.510;6.686;2024-02-16T11:05:40;7.78;;;5.05;;
57643;SDS011;43474;46.510;6.686;2024-02-16T11:08:16;7.03;;;5.00;;
57643;SDS011;43474;46.510;6.686;2024-02-16T11:10:56;8.40;;;4.90;;
57643;SDS011;43474;46.510;6.686;2024-02-16T11:13:23;8.45;;;4.97;;
57643;SDS011;43474;46.510;6.686;2024-02-16T11:16:02;9.63;;;5.05;;
57643;SDS011;43474;46.510;6.686;2024-02-16T11:18:29;8.25;;;4.50;;
57643;SDS011;43474;46.510;6.686;2024-02-16T11:20:59;9.23;;;4.55;;
57643;SDS011;43474;46.510;6.686;2024-02-16T11:23:29;7.63;;;4.30;;
57643;SDS011;43474;46.510;6.686;2024-02-16T11:26:03;6.45;;;4.35;;
57643;SDS011;43474;46.510;6.686;2024-02-16T11:28:33;6.75;;;4.10;;
57643;SDS011;43474;46.510;6.686;2024-02-16T11:31:00;8.13;;;4.73;;
57643;SDS011;43474;46.510;6.686;2024-02-16T11:33:28;9.10;;;5.10;;
57643;SDS011;43474;46.510;6.686;2024-02-16T11:36:00;7.35;;;4.80;;
57643;SDS011;43474;46.510;6.686;2024-02-16T11:38:27;7.85;;;4.85;;
57643;SDS011;43474;46.510;6.686;2024-02-16T11:40:59;7.68;;;4.70;;
57643;SDS011;43474;46.510;6.686;2024-02-16T11:43:29;8.50;;;4.55;;
57643;SDS011;43474;46.510;6.686;2024-02-16T11:45:55;9.75;;;4.25;;
57643;SDS011;43474;46.510;6.686;2024-02-16T11:48:22;8.65;;;3.67;;
57643;SDS011;43474;46.510;6.686;2024-02-16T11:50:49;6.03;;;4.20;;
57643;SDS011;43474;46.510;6.686;2024-02-16T11:53:23;5.57;;;3.65;;
57643;SDS011;43474;46.510;6.686;2024-02-16T11:55:49;6.05;;;3.88;;
57643;SDS011;43474;46.510;6.686;2024-02-16T11:58:18;4.88;;;2.90;;
57643;SDS011;43474;46.510;6.686;2024-02-16T12:00:48;6.05;;;2.03;;
57643;SDS011;43474;46.510;6.686;2024-02-16T12:03:22;3.28;;;2.20;;
57643;SDS011;43474;46.510;6.686;2024-02-16T12:05:53;4.50;;;2.60;;
57643;SDS011;43474;46.510;6.686;2024-02-16T12:08:19;6.13;;;2.83;;
57643;SDS011;43474;46.510;6.686;2024-02-16T12:10:46;3.53;;;2.45;;
57643;SDS011;43474;46.510;6.686;2024-02-16T12:13:13;3.95;;;3.00;;
57643;SDS011;43474;46.510;6.686;2024-02-16T12:15:39;6.93;;;4.10;;
57643;SDS011;43474;46.510;6.686;2024-02-16T12:18:04;9.40;;;4.90;;
57643;SDS011;43474;46.510;6.686;2024-02-16T12:20:30;6.90;;;4.00;;
57643;SDS011;43474;46.510;6.686;2024-02-16T12:22:57;5.65;;;3.47;;
57643;SDS011;43474;46.510;6.686;2024-02-16T12:25:25;4.57;;;2.80;;
57643;SDS011;43474;46.510;6.686;2024-02-16T12:27:51;3.75;;;2.90;;
57643;SDS011;43474;46.510;6.686;2024-02-16T12:30:17;4.50;;;2.88;;
57643;SDS011;43474;46.510;6.686;2024-02-16T12:32:43;6.22;;;3.33;;
57643;SDS011;43474;46.510;6.686;2024-02-16T12:35:09;5.22;;;3.50;;
57643;SDS011;43474;46.510;6.686;2024-02-16T12:37:34;6.80;;;3.53;;
57643;SDS011;43474;46.510;6.686;2024-02-16T12:40:00;5.35;;;3.25;;
57643;SDS011;43474;46.510;6.686;2024-02-16T12:42:27;6.38;;;3.10;;
57643;SDS011;43474;46.510;6.686;2024-02-16T12:44:53;5.43;;;3.72;;
57643;SDS011;43474;46.510;6.686;2024-02-16T12:47:18;6.63;;;3.40;;
57643;SDS011;43474;46.510;6.686;2024-02-16T12:49:44;8.45;;;3.67;;
57643;SDS011;43474;46.510;6.686;2024-02-16T12:52:09;6.07;;;4.28;;
57643;SDS011;43474;46.510;6.686;2024-02-16T12:54:35;7.60;;;4.60;;
57643;SDS011;43474;46.510;6.686;2024-02-16T12:57:01;5.82;;;4.07;;
57643;SDS011;43474;46.510;6.686;2024-02-16T12:59:27;6.80;;;3.40;;
57643;SDS011;43474;46.510;6.686;2024-02-16T13:01:52;6.82;;;3.38;;
57643;SDS011;43474;46.510;6.686;2024-02-16T13:04:18;5.57;;;3.25;;
57643;SDS011;43474;46.510;6.686;2024-02-16T13:06:47;5.40;;;3.35;;
57643;SDS011;43474;46.510;6.686;2024-02-16T13:09:13;5.90;;;2.83;;
57643;SDS011;43474;46.510;6.686;2024-02-16T13:11:39;6.97;;;2.92;;
57643;SDS011;43474;46.510;6.686;2024-02-16T13:14:06;5.47;;;2.92;;
57643;SDS011;43474;46.510;6.686;2024-02-16T13:16:31;6.05;;;3.13;;
57643;SDS011;43474;46.510;6.686;2024-02-16T13:18:57;5.43;;;3.05;;
57643;SDS011;43474;46.510;6.686;2024-02-16T13:21:23;4.65;;;2.42;;
57643;SDS011;43474;46.510;6.686;2024-02-16T13:23:49;7.00;;;3.15;;
57643;SDS011;43474;46.510;6.686;2024-02-16T13:26:14;4.28;;;3.13;;
57643;SDS011;43474;46.510;6.686;2024-02-16T13:28:40;6.85;;;3.80;;
57643;SDS011;43474;46.510;6.686;2024-02-16T13:31:05;4.13;;;2.63;;
57643;SDS011;43474;46.510;6.686;2024-02-16T13:33:32;4.70;;;2.50;;
57643;SDS011;43474;46.510;6.686;2024-02-16T13:35:57;5.53;;;2.90;;
57643;SDS011;43474;46.510;6.686;2024-02-16T13:38:24;3.78;;;2.63;;
57643;SDS011;43474;46.510;6.686;2024-02-16T13:40:49;4.20;;;2.58;;
57643;SDS011;43474;46.510;6.686;2024-02-16T13:43:15;5.63;;;2.72;;
57643;SDS011;43474;46.510;6.686;2024-02-16T13:48:16;3.58;;;2.40;;
57643;SDS011;43474;46.510;6.686;2024-02-16T13:50:48;4.38;;;2.70;;
57643;SDS011;43474;46.510;6.686;2024-02-16T13:53:14;6.72;;;3.45;;
57643;SDS011;43474;46.510;6.686;2024-02-16T13:55:41;5.85;;;3.22;;
57643;SDS011;43474;46.510;6.686;2024-02-16T13:58:12;6.45;;;3.72;;
57643;SDS011;43474;46.510;6.686;2024-02-16T14:00:38;4.18;;;2.97;;
57643;SDS011;43474;46.510;6.686;2024-02-16T14:03:04;5.18;;;3.30;;
57643;SDS011;43474;46.510;6.686;2024-02-16T14:05:35;4.90;;;3.00;;
57643;SDS011;43474;46.510;6.686;2024-02-16T14:08:04;5.43;;;3.08;;
57643;SDS011;43474;46.510;6.686;2024-02-16T14:10:30;7.40;;;3.20;;
57643;SDS011;43474;46.510;6.686;2024-02-16T14:12:57;5.57;;;2.90;;
57643;SDS011;43474;46.510;6.686;2024-02-16T14:15:23;4.38;;;2.78;;
57643;SDS011;43474;46.510;6.686;2024-02-16T14:17:49;7.85;;;2.67;;
57643;SDS011;43474;46.510;6.686;2024-02-16T14:20:15;5.40;;;2.53;;
57643;SDS011;43474;46.510;6.686;2024-02-16T14:22:41;7.55;;;2.95;;
57643;SDS011;43474;46.510;6.686;2024-02-16T14:25:06;5.20;;;2.50;;
57643;SDS011;43474;46.510;6.686;2024-02-16T14:27:36;3.33;;;2.33;;
57643;SDS011;43474;46.510;6.686;2024-02-16T14:30:02;6.55;;;2.60;;
57643;SDS011;43474;46.510;6.686;2024-02-16T14:32:28;4.80;;;2.70;;
57643;SDS011;43474;46.510;6.686;2024-02-16T14:34:54;5.43;;;2.67;;
57643;SDS011;43474;46.510;6.686;2024-02-16T14:37:20;4.55;;;2.45;;
57643;SDS011;43474;46.510;6.686;2024-02-16T14:39:45;6.47;;;3.13;;
57643;SDS011;43474;46.510;6.686;2024-02-16T14:42:12;3.72;;;2.47;;
57643;SDS011;43474;46.510;6.686;2024-02-16T14:44:37;3.60;;;2.30;;
57643;SDS011;43474;46.510;6.686;2024-02-16T14:47:03;4.13;;;2.35;;
57643;SDS011;43474;46.510;6.686;2024-02-16T14:49:29;3.83;;;2.33;;
57643;SDS011;43474;46.510;6.686;2024-02-16T14:51:57;4.15;;;2.28;;
57643;SDS011;43474;46.510;6.686;2024-02-16T14:54:23;3.22;;;2.40;;
57643;SDS011;43474;46.510;6.686;2024-02-16T14:56:52;4.80;;;2.20;;
57643;SDS011;43474;46.510;6.686;2024-02-16T14:59:20;3.55;;;2.17;;
57643;SDS011;43474;46.510;6.686;2024-02-16T15:01:46;3.78;;;2.67;;
57643;SDS011;43474;46.510;6.686;2024-02-16T15:04:12;4.90;;;2.65;;
57643;SDS011;43474;46.510;6.686;2024-02-16T15:06:37;3.95;;;2.55;;
57643;SDS011;43474;46.510;6.686;2024-02-16T15:09:03;3.65;;;2.55;;
57643;SDS011;43474;46.510;6.686;2024-02-16T15:11:29;3.65;;;2.35;;
57643;SDS011;43474;46.510;6.686;2024-02-16T15:13:55;4.88;;;2.78;;
57643;SDS011;43474;46.510;6.686;2024-02-16T15:16:21;5.03;;;2.50;;
57643;SDS011;43474;46.510;6.686;2024-02-16T15:18:47;4.18;;;2.65;;